Terminal Aerodrome Forecast
Issued by NWS

Home | Current Version | Previous Version | Text Only | Print | Product List | Glossary On
Versions: 1 2 3 4 5 6 7 8 9 10 11 12 13 14
000
FTUS42 KTBW 312300
TAFPGD
TAF
KPGD 312335Z 0100/0124 29007KT P6SM FEW050 FEW250
     FM010100 VRB03KT P6SM FEW040 SCT250
     FM011500 32005KT P6SM FEW035 SCT250
     FM011800 27008KT P6SM VCTS SCT040CB BKN250=

USA.gov is the U.S. government's official web portal to all federal, state and local government web resources and services.